Time;durP1;ratioP1;P1;durP2;ratioP2;P2;SDS_P1;SDS_P2;PMS_P1;PMS_P2;Temp;Humidity;BMP_temperature;BMP_pressure;BME280_temperature;BME280_humidity;BME280_pressure;Samples;Min_cycle;Max_cycle;Signal;HPM_P1;HPM_P2
2023/11/04 00:00:16;;;;;;;10.98;2.50;;;7.70;99.90;;;;;;5073460;28;20063;-70
2023/11/04 00:02:42;;;;;;;3.50;1.77;;;7.70;99.90;;;;;;5073486;28;20042;-70
2023/11/04 00:05:08;;;;;;;3.25;2.00;;;7.70;99.90;;;;;;5073733;28;20495;-70
2023/11/04 00:07:34;;;;;;;2.72;2.08;;;7.70;99.90;;;;;;5073555;28;20494;-70
2023/11/04 00:09:59;;;;;;;2.55;2.00;;;7.70;99.90;;;;;;5091497;28;20072;-71
2023/11/04 00:12:25;;;;;;;4.10;1.95;;;7.60;99.90;;;;;;5073122;28;20035;-70
2023/11/04 00:14:51;;;;;;;5.80;1.77;;;7.60;99.90;;;;;;5073254;28;20048;-71
2023/11/04 00:17:17;;;;;;;11.88;1.98;;;7.60;99.90;;;;;;5091602;28;20032;-70
2023/11/04 00:19:42;;;;;;;2.67;2.08;;;7.60;99.90;;;;;;5073327;28;20114;-71
2023/11/04 00:22:08;;;;;;;4.60;1.90;;;7.50;99.90;;;;;;5073014;28;20048;-70
2023/11/04 00:24:33;;;;;;;2.85;1.85;;;7.50;99.90;;;;;;5073222;28;20411;-71
2023/11/04 00:26:59;;;;;;;6.07;1.90;;;7.50;99.90;;;;;;5073276;28;20048;-71
2023/11/04 00:29:25;;;;;;;2.58;1.70;;;7.50;99.90;;;;;;5091273;28;20036;-71
2023/11/04 00:31:50;;;;;;;2.83;1.88;;;7.50;99.90;;;;;;5073234;28;20043;-71
2023/11/04 00:34:16;;;;;;;4.05;1.98;;;7.50;99.90;;;;;;5091720;28;20043;-70
2023/11/04 00:36:41;;;;;;;2.13;1.48;;;7.40;99.90;;;;;;5095200;28;20396;-71
2023/11/04 00:39:09;;;;;;;3.03;2.03;;;7.40;99.90;;;;;;5095095;28;20063;-70
2023/11/04 00:41:34;;;;;;;3.95;2.20;;;7.40;99.90;;;;;;5076643;28;20082;-70
2023/11/04 00:44:01;;;;;;;3.50;1.75;;;7.50;99.90;;;;;;5094718;28;20075;-70
2023/11/04 00:46:26;;;;;;;2.58;1.67;;;7.50;99.90;;;;;;5095186;28;20036;-70
2023/11/04 00:48:52;;;;;;;2.78;1.90;;;7.50;99.90;;;;;;5094819;28;20583;-71
2023/11/04 00:51:18;;;;;;;6.40;2.92;;;7.50;99.90;;;;;;5076582;28;20096;-70
2023/11/04 00:53:44;;;;;;;3.97;2.13;;;7.60;99.90;;;;;;5076572;28;20063;-70
2023/11/04 00:56:09;;;;;;;6.85;2.75;;;7.60;99.90;;;;;;5094614;28;20028;-70
2023/11/04 00:58:35;;;;;;;5.93;1.48;;;7.60;99.90;;;;;;5094901;28;20036;-70
2023/11/04 01:01:00;;;;;;;2.95;1.63;;;7.70;99.90;;;;;;5076424;28;20039;-71
2023/11/04 01:03:26;;;;;;;2.22;1.42;;;7.70;99.90;;;;;;5094584;28;20032;-71
2023/11/04 01:05:51;;;;;;;5.53;1.50;;;7.70;99.90;;;;;;5076331;28;20411;-70
2023/11/04 01:08:17;;;;;;;3.20;1.45;;;7.70;99.90;;;;;;5094501;28;20122;-71
2023/11/04 01:10:43;;;;;;;2.42;1.65;;;7.70;99.90;;;;;;5059526;28;20044;-70
2023/11/04 01:13:08;;;;;;;2.08;1.58;;;7.80;99.90;;;;;;5094175;28;20043;-71
2023/11/04 01:15:34;;;;;;;2.20;1.40;;;7.80;99.90;;;;;;5094515;28;20032;-70
2023/11/04 01:18:00;;;;;;;3.88;2.50;;;7.90;99.90;;;;;;5076262;28;20105;-70
2023/11/04 01:20:25;;;;;;;2.55;2.30;;;7.80;99.90;;;;;;5094228;28;20384;-70
2023/11/04 01:22:51;;;;;;;2.92;1.60;;;7.70;99.90;;;;;;5094197;28;20139;-70
2023/11/04 01:25:17;;;;;;;6.03;1.90;;;7.80;99.90;;;;;;5075935;28;20093;-70
2023/11/04 01:27:42;;;;;;;5.82;1.45;;;7.80;99.90;;;;;;5094207;28;20089;-70
2023/11/04 01:30:10;;;;;;;1.92;1.30;;;7.80;99.90;;;;;;5094214;28;20044;-71
2023/11/04 01:32:35;;;;;;;2.15;1.50;;;7.80;99.90;;;;;;5093184;28;20456;-70
2023/11/04 01:35:01;;;;;;;2.90;1.45;;;7.80;99.90;;;;;;5114202;28;20040;-70
2023/11/04 01:37:27;;;;;;;4.15;1.75;;;7.80;99.90;;;;;;5114410;28;20115;-70
2023/11/04 01:39:53;;;;;;;2.13;1.02;;;7.90;99.90;;;;;;5095945;28;20062;-70
2023/11/04 01:42:19;;;;;;;2.17;1.60;;;7.90;99.90;;;;;;5095882;28;20411;-71
2023/11/04 01:44:44;;;;;;;3.28;1.50;;;7.90;99.90;;;;;;5114163;28;20043;-70
2023/11/04 01:47:12;;;;;;;4.40;1.42;;;8.00;99.90;;;;;;5095611;28;20041;-70
2023/11/04 01:49:38;;;;;;;2.92;1.35;;;8.00;99.90;;;;;;5096057;28;20135;-70
2023/11/04 01:52:05;;;;;;;2.55;1.50;;;8.00;99.90;;;;;;5095850;28;20039;-70
2023/11/04 01:54:31;;;;;;;2.03;1.20;;;8.00;99.90;;;;;;5113788;28;20089;-71
2023/11/04 01:56:57;;;;;;;3.75;1.83;;;8.00;99.90;;;;;;5114269;28;20040;-70
2023/11/04 01:59:25;;;;;;;2.35;1.55;;;8.10;99.90;;;;;;5078765;28;20036;-71
2023/11/04 02:01:51;;;;;;;3.70;1.60;;;8.10;99.90;;;;;;5113748;28;20036;-70
2023/11/04 02:04:17;;;;;;;4.00;1.17;;;8.10;99.90;;;;;;5113837;28;20035;-71
2023/11/04 02:06:44;;;;;;;2.95;1.40;;;8.10;99.90;;;;;;5113884;28;20092;-70
2023/11/04 02:09:11;;;;;;;1.35;1.20;;;8.10;99.90;;;;;;5113677;28;20092;-70
2023/11/04 02:11:36;;;;;;;2.63;1.30;;;8.10;99.90;;;;;;5113443;28;20441;-70
2023/11/04 02:14:03;;;;;;;3.38;1.80;;;8.20;99.90;;;;;;5113447;28;20031;-70
2023/11/04 02:16:29;;;;;;;4.22;1.40;;;8.10;99.90;;;;;;5095372;28;20534;-71
2023/11/04 02:18:55;;;;;;;3.45;1.50;;;8.20;99.90;;;;;;5095518;28;20047;-71
2023/11/04 02:21:21;;;;;;;2.90;1.50;;;8.20;99.90;;;;;;5095017;28;20039;-71
2023/11/04 02:23:47;;;;;;;4.05;1.42;;;8.20;99.90;;;;;;5113250;28;20499;-71
2023/11/04 02:26:13;;;;;;;3.75;1.77;;;8.20;99.90;;;;;;5113584;28;20042;-70
2023/11/04 02:28:38;;;;;;;3.35;1.40;;;8.20;99.90;;;;;;5113257;28;20082;-70
2023/11/04 02:31:04;;;;;;;2.47;1.80;;;8.20;99.90;;;;;;5095189;28;20049;-71
2023/11/04 02:33:29;;;;;;;3.50;1.35;;;8.20;99.90;;;;;;5078024;28;20036;-71
2023/11/04 02:35:55;;;;;;;5.35;1.65;;;8.30;99.90;;;;;;5113053;28;20035;-70
2023/11/04 02:38:22;;;;;;;3.17;1.80;;;8.30;99.90;;;;;;5113147;28;20105;-71
2023/11/04 02:40:48;;;;;;;3.17;1.70;;;8.30;99.90;;;;;;5113012;28;20035;-70
2023/11/04 02:43:14;;;;;;;3.08;1.55;;;8.30;99.90;;;;;;5113082;28;20556;-70
2023/11/04 02:45:40;;;;;;;2.83;1.80;;;8.30;99.90;;;;;;5142194;22;20035;-74
2023/11/04 02:48:06;;;;;;;3.38;1.50;;;8.40;99.90;;;;;;5094652;28;20093;-74
2023/11/04 02:50:31;;;;;;;3.42;1.73;;;8.30;99.90;;;;;;5111501;28;20080;-74
2023/11/04 02:52:57;;;;;;;3.90;1.63;;;8.40;99.90;;;;;;5111435;28;20035;-74
2023/11/04 02:55:23;;;;;;;8.05;1.77;;;8.40;99.90;;;;;;5111187;28;20043;-74
2023/11/04 02:57:48;;;;;;;4.25;2.03;;;8.40;99.90;;;;;;5110657;28;20038;-74
2023/11/04 03:00:14;;;;;;;3.58;2.22;;;8.40;99.90;;;;;;5111352;28;20141;-74
2023/11/04 03:02:41;;;;;;;2.65;1.63;;;8.40;99.90;;;;;;5111287;28;20080;-74
2023/11/04 03:05:07;;;;;;;4.07;1.77;;;8.40;99.90;;;;;;5111242;28;20039;-74
2023/11/04 03:07:33;;;;;;;4.07;1.95;;;8.40;99.90;;;;;;5111401;28;20040;-74
2023/11/04 03:09:58;;;;;;;6.20;2.50;;;8.50;99.90;;;;;;5112569;28;20035;-74
2023/11/04 03:12:24;;;;;;;5.80;1.92;;;8.50;99.90;;;;;;5112528;28;20032;-74
2023/11/04 03:14:50;;;;;;;3.50;1.98;;;8.50;99.90;;;;;;5094241;28;20071;-74
2023/11/04 03:17:16;;;;;;;2.75;2.00;;;8.50;99.90;;;;;;5094427;28;20120;-74
2023/11/04 03:19:45;;;;;;;5.70;1.92;;;8.50;99.90;;;;;;5111069;28;20506;-74
2023/11/04 03:22:12;;;;;;;3.85;1.95;;;8.50;99.90;;;;;;5111112;28;20039;-74
2023/11/04 03:24:45;;;;;;;7.38;2.45;;;8.60;99.90;;;;;;5111080;28;20042;-73
2023/11/04 03:27:12;;;;;;;4.97;2.53;;;8.60;99.90;;;;;;5111441;28;20131;-74
2023/11/04 03:29:38;;;;;;;3.88;2.50;;;8.50;99.90;;;;;;5111322;28;20494;-74
2023/11/04 03:32:04;;;;;;;4.25;2.45;;;8.60;99.90;;;;;;5110740;28;20042;-74
2023/11/04 03:34:29;;;;;;;2.70;2.00;;;8.60;99.90;;;;;;5093851;28;20047;-74
2023/11/04 03:36:55;;;;;;;4.25;2.15;;;8.60;99.90;;;;;;5111377;28;20082;-74
2023/11/04 03:39:20;;;;;;;4.45;2.47;;;8.60;99.90;;;;;;5110944;28;20500;-74
2023/11/04 03:41:46;;;;;;;3.53;2.20;;;8.60;99.90;;;;;;5110694;28;20042;-74
2023/11/04 03:44:12;;;;;;;5.00;3.28;;;8.60;99.90;;;;;;5110651;28;20128;-74
2023/11/04 03:46:37;;;;;;;3.85;2.65;;;8.60;99.90;;;;;;5093776;28;20042;-74
2023/11/04 03:49:05;;;;;;;5.30;2.85;;;8.60;99.90;;;;;;5094079;28;20047;-74
2023/11/04 03:51:30;;;;;;;4.20;2.55;;;8.60;99.90;;;;;;5110823;28;20096;-74
2023/11/04 03:53:56;;;;;;;5.95;2.60;;;8.60;99.90;;;;;;5110729;28;20122;-74
2023/11/04 03:56:22;;;;;;;8.18;3.13;;;8.60;99.90;;;;;;5112019;28;20039;-74
2023/11/04 03:58:47;;;;;;;4.88;2.95;;;8.60;99.90;;;;;;5112029;28;20043;-74
2023/11/04 04:01:13;;;;;;;8.25;2.88;;;8.60;99.90;;;;;;5110418;28;20579;-74
2023/11/04 04:03:39;;;;;;;7.00;3.22;;;8.60;99.90;;;;;;5110721;28;20044;-74
2023/11/04 04:06:05;;;;;;;5.20;3.25;;;8.60;99.90;;;;;;5112057;28;20063;-74
2023/11/04 04:08:30;;;;;;;6.10;3.03;;;8.60;99.90;;;;;;5111791;28;20040;-74
2023/11/04 04:10:56;;;;;;;4.75;2.85;;;8.60;99.90;;;;;;5114690;28;20051;-74
2023/11/04 04:13:21;;;;;;;4.15;2.97;;;8.70;99.90;;;;;;5114690;28;20147;-74
2023/11/04 04:15:47;;;;;;;6.32;2.80;;;8.70;99.90;;;;;;5114862;28;20031;-74
2023/11/04 04:18:13;;;;;;;5.40;2.88;;;8.70;99.90;;;;;;5115106;28;20032;-74
2023/11/04 04:20:38;;;;;;;5.28;2.78;;;8.70;99.90;;;;;;5094396;28;20058;-74
2023/11/04 04:23:04;;;;;;;7.20;2.55;;;8.70;99.90;;;;;;5093959;28;20503;-74
2023/11/04 04:25:30;;;;;;;5.53;2.80;;;8.70;99.90;;;;;;5094052;28;20047;-74
2023/11/04 04:27:56;;;;;;;6.55;3.05;;;8.70;99.90;;;;;;5094054;28;20032;-74
2023/11/04 04:30:21;;;;;;;5.43;2.88;;;8.70;99.90;;;;;;5093898;28;20051;-74
2023/11/04 04:32:48;;;;;;;7.55;3.28;;;8.70;99.90;;;;;;5095027;28;20039;-74
2023/11/04 04:35:14;;;;;;;4.13;2.97;;;8.80;99.90;;;;;;5093872;28;20044;-74
2023/11/04 04:37:40;;;;;;;6.68;3.10;;;8.70;99.90;;;;;;5093868;28;20032;-74
2023/11/04 04:40:06;;;;;;;7.88;2.97;;;8.70;99.90;;;;;;5093745;28;20044;-74
2023/11/04 04:42:32;;;;;;;7.80;3.33;;;8.70;99.90;;;;;;5093859;28;20032;-74
2023/11/04 04:44:57;;;;;;;7.57;2.60;;;8.70;99.90;;;;;;5093486;28;20094;-74
2023/11/04 04:47:23;;;;;;;4.53;3.03;;;8.80;99.90;;;;;;5093703;28;20044;-74
2023/11/04 04:49:49;;;;;;;6.75;3.45;;;8.80;99.90;;;;;;5093811;28;20065;-74
2023/11/04 04:52:16;;;;;;;5.78;2.60;;;8.80;99.90;;;;;;5076584;28;20410;-74
2023/11/04 04:54:41;;;;;;;6.85;2.85;;;8.90;99.90;;;;;;5094839;28;20044;-74
2023/11/04 04:57:07;;;;;;;6.32;2.72;;;8.80;99.90;;;;;;5093604;28;20054;-74
2023/11/04 04:59:33;;;;;;;7.47;2.97;;;8.80;99.90;;;;;;5093385;28;20135;-74
2023/11/04 05:01:58;;;;;;;4.10;2.60;;;8.80;99.90;;;;;;5093181;28;20040;-74
2023/11/04 05:04:24;;;;;;;8.90;3.08;;;8.90;99.90;;;;;;5093409;28;20071;-74
2023/11/04 05:06:50;;;;;;;6.75;2.97;;;8.90;99.90;;;;;;5094572;28;20047;-74
2023/11/04 05:09:15;;;;;;;3.70;3.10;;;8.90;99.90;;;;;;5093312;28;20040;-74
2023/11/04 05:11:41;;;;;;;3.63;2.63;;;8.90;99.90;;;;;;5092981;28;20039;-74
2023/11/04 05:14:06;;;;;;;5.03;3.00;;;8.90;99.90;;;;;;5093071;28;20040;-74
2023/11/04 05:16:32;;;;;;;4.05;2.90;;;8.90;99.90;;;;;;5093433;28;20484;-74
2023/11/04 05:18:57;;;;;;;4.85;3.30;;;8.90;99.90;;;;;;5093161;28;20510;-74
2023/11/04 05:21:24;;;;;;;4.35;3.22;;;8.90;99.90;;;;;;5092343;28;20177;-74
2023/11/04 05:23:50;;;;;;;7.57;3.33;;;8.90;99.90;;;;;;5093062;28;20040;-74
2023/11/04 05:26:16;;;;;;;7.70;3.33;;;8.90;99.90;;;;;;5092913;28;20089;-74
2023/11/04 05:28:42;;;;;;;7.10;3.63;;;8.90;99.90;;;;;;5092809;28;20046;-74
2023/11/04 05:31:08;;;;;;;7.30;3.13;;;8.90;99.90;;;;;;5092967;28;20048;-74
2023/11/04 05:33:33;;;;;;;5.30;3.40;;;9.00;99.90;;;;;;5092665;28;20044;-74
2023/11/04 05:35:59;;;;;;;6.10;3.33;;;9.00;99.90;;;;;;5092664;28;20393;-74
2023/11/04 05:38:27;;;;;;;6.65;2.95;;;8.90;99.90;;;;;;5092940;28;20089;-74
2023/11/04 05:40:53;;;;;;;5.28;2.88;;;8.90;99.90;;;;;;5092851;28;20588;-74
2023/11/04 05:43:19;;;;;;;4.38;2.83;;;9.00;99.90;;;;;;5092671;28;20040;-74
2023/11/04 05:45:49;;;;;;;6.80;3.67;;;9.00;99.90;;;;;;5092261;28;20044;-74
2023/11/04 05:48:15;;;;;;;5.20;3.33;;;9.00;99.90;;;;;;5092459;28;20044;-74
2023/11/04 05:50:41;;;;;;;4.03;2.90;;;9.00;99.90;;;;;;5092389;28;20036;-74
2023/11/04 05:53:06;;;;;;;4.65;2.97;;;9.00;99.90;;;;;;5092408;28;20032;-74
2023/11/04 05:55:32;;;;;;;5.93;3.13;;;9.00;99.90;;;;;;5075615;28;20536;-74
2023/11/04 05:57:58;;;;;;;5.13;2.97;;;9.00;99.90;;;;;;5092247;28;20120;-75
2023/11/04 06:00:24;;;;;;;4.35;2.88;;;9.00;99.90;;;;;;5075314;28;20112;-74
2023/11/04 06:02:50;;;;;;;4.30;3.10;;;9.00;99.90;;;;;;5092102;28;20032;-74
2023/11/04 06:05:16;;;;;;;6.40;2.92;;;9.00;99.90;;;;;;5092356;28;20043;-74
2023/11/04 06:07:42;;;;;;;3.92;3.13;;;9.00;99.90;;;;;;5075325;28;20036;-74
2023/11/04 06:10:08;;;;;;;4.65;2.80;;;9.00;99.90;;;;;;5093117;28;20667;-74
2023/11/04 06:12:34;;;;;;;4.55;2.83;;;9.00;99.90;;;;;;5074785;28;20036;-74
2023/11/04 06:15:00;;;;;;;3.42;2.67;;;9.00;99.90;;;;;;5091795;28;20040;-74
2023/11/04 06:17:26;;;;;;;3.70;2.85;;;9.00;99.90;;;;;;5091905;28;20417;-74
2023/11/04 06:19:51;;;;;;;4.15;3.15;;;9.00;99.90;;;;;;5091805;28;20116;-74
2023/11/04 06:22:19;;;;;;;7.63;3.00;;;9.00;99.90;;;;;;5091761;28;20040;-74
2023/11/04 06:24:45;;;;;;;9.75;2.67;;;9.00;99.90;;;;;;5074858;28;20040;-74
2023/11/04 06:27:10;;;;;;;4.10;2.90;;;9.00;99.90;;;;;;5091745;28;20123;-74
2023/11/04 06:29:36;;;;;;;4.20;2.65;;;9.00;99.90;;;;;;5091628;28;20451;-74
2023/11/04 06:32:02;;;;;;;4.00;2.88;;;9.10;99.90;;;;;;5090436;28;20051;-74
2023/11/04 06:34:28;;;;;;;3.67;2.70;;;9.00;99.90;;;;;;5091552;28;20040;-74
2023/11/04 06:36:53;;;;;;;6.07;3.20;;;9.00;99.90;;;;;;5091872;28;20028;-74
2023/11/04 06:39:19;;;;;;;8.23;3.28;;;9.00;99.90;;;;;;5091447;28;20036;-74
2023/11/04 06:41:44;;;;;;;7.47;3.40;;;9.00;99.90;;;;;;5091380;28;20047;-74
2023/11/04 06:44:10;;;;;;;5.07;3.22;;;9.10;99.90;;;;;;5074259;28;20504;-74
2023/11/04 06:46:37;;;;;;;4.68;2.92;;;9.10;99.90;;;;;;5091434;28;20040;-74
2023/11/04 06:49:03;;;;;;;3.97;2.95;;;9.10;99.90;;;;;;5074269;28;20052;-75
2023/11/04 06:51:28;;;;;;;9.57;3.58;;;9.10;99.90;;;;;;5090916;28;20036;-75
2023/11/04 06:53:56;;;;;;;4.75;3.20;;;9.10;99.90;;;;;;5091295;28;20410;-75
2023/11/04 06:56:24;;;;;;;5.18;3.33;;;9.10;99.90;;;;;;5074298;28;20155;-75
2023/11/04 06:58:51;;;;;;;5.82;3.50;;;9.10;99.90;;;;;;5091422;28;20070;-75
2023/11/04 07:01:16;;;;;;;6.43;3.42;;;9.10;99.90;;;;;;5091024;28;20044;-75
2023/11/04 07:03:42;;;;;;;6.50;2.58;;;9.10;99.90;;;;;;5091224;28;20407;-75
2023/11/04 07:06:12;;;;;;;5.28;3.22;;;9.10;99.90;;;;;;5091093;28;20044;-75
2023/11/04 07:08:38;;;;;;;4.22;2.83;;;9.10;99.90;;;;;;5092290;28;20040;-75
2023/11/04 07:11:03;;;;;;;5.53;3.10;;;9.10;99.90;;;;;;5091195;28;20044;-75
2023/11/04 07:13:29;;;;;;;4.88;2.90;;;9.20;99.90;;;;;;5090684;28;20083;-75
2023/11/04 07:15:57;;;;;;;4.05;2.75;;;9.20;99.90;;;;;;5074357;28;20043;-75
2023/11/04 07:18:23;;;;;;;6.53;2.95;;;9.20;99.90;;;;;;5092204;28;20495;-75
2023/11/04 07:20:49;;;;;;;7.15;5.50;;;9.20;99.90;;;;;;5090921;28;20044;-75
2023/11/04 07:23:17;;;;;;;15.63;8.57;;;9.20;99.90;;;;;;5090906;28;20040;-75
2023/11/04 07:25:44;;;;;;;15.77;8.60;;;9.20;99.90;;;;;;5073899;28;20130;-75
2023/11/04 07:28:10;;;;;;;5.50;4.53;;;9.30;99.90;;;;;;5090714;28;20044;-75
2023/11/04 07:30:36;;;;;;;5.60;3.33;;;9.20;99.90;;;;;;5090683;28;20088;-75
2023/11/04 07:33:02;;;;;;;8.35;3.70;;;9.30;99.90;;;;;;5090420;28;20071;-75
2023/11/04 07:35:28;;;;;;;4.05;3.17;;;9.30;99.90;;;;;;5091734;28;20075;-73
2023/11/04 07:37:54;;;;;;;6.78;3.03;;;9.30;99.90;;;;;;5090526;28;20036;-76
2023/11/04 07:40:20;;;;;;;4.28;2.97;;;9.30;99.90;;;;;;5090756;28;20384;-75
2023/11/04 07:42:46;;;;;;;4.30;2.63;;;9.40;99.90;;;;;;5091718;28;20161;-76
2023/11/04 07:45:12;;;;;;;5.68;3.00;;;9.40;99.90;;;;;;5090010;28;20482;-76
2023/11/04 07:47:42;;;;;;;5.57;2.83;;;9.40;99.90;;;;;;5090526;28;20043;-76
2023/11/04 07:50:10;;;;;;;4.63;2.90;;;9.40;99.90;;;;;;5090354;28;20036;-76
2023/11/04 07:52:36;;;;;;;4.82;3.10;;;9.40;99.90;;;;;;5108476;28;20063;-76
2023/11/04 07:55:05;;;;;;;3.58;3.25;;;9.40;99.90;;;;;;5110239;28;20071;-76
2023/11/04 07:57:33;;;;;;;5.28;2.63;;;9.50;99.90;;;;;;5094510;28;20043;-79
2023/11/04 08:00:04;;;;;;;4.85;3.10;;;9.50;99.90;;;;;;5110642;28;20040;-75
2023/11/04 08:02:31;;;;;;;4.80;2.88;;;9.50;99.90;;;;;;5110609;28;20043;-76
2023/11/04 08:04:57;;;;;;;4.82;2.90;;;9.50;99.90;;;;;;5110547;28;20040;-76
2023/11/04 08:07:23;;;;;;;4.40;2.53;;;9.50;99.90;;;;;;5111104;28;20055;-76
2023/11/04 08:09:49;;;;;;;4.90;3.00;;;9.50;99.90;;;;;;5110959;28;20576;-76
2023/11/04 08:12:16;;;;;;;5.60;3.25;;;9.60;99.90;;;;;;5110863;28;20495;-76
2023/11/04 08:14:42;;;;;;;3.38;2.83;;;9.60;99.90;;;;;;5110610;28;20084;-76
2023/11/04 08:17:07;;;;;;;6.10;3.22;;;9.70;99.90;;;;;;5110848;28;20436;-76
2023/11/04 08:19:33;;;;;;;4.80;2.90;;;9.70;99.90;;;;;;5110569;28;20495;-77
2023/11/04 08:21:59;;;;;;;5.70;3.35;;;9.70;99.90;;;;;;5110631;28;20031;-76
2023/11/04 08:24:25;;;;;;;6.45;3.28;;;9.70;99.90;;;;;;5110496;28;20074;-76
2023/11/04 08:26:52;;;;;;;5.00;3.28;;;9.80;99.90;;;;;;5093541;28;20088;-76
2023/11/04 08:29:18;;;;;;;5.90;3.55;;;9.80;99.90;;;;;;5110451;28;20043;-77
2023/11/04 08:31:44;;;;;;;9.60;3.90;;;9.90;99.90;;;;;;5110155;28;20047;-77
2023/11/04 08:34:09;;;;;;;7.05;3.85;;;9.90;99.90;;;;;;5111733;28;20035;-76
2023/11/04 08:36:35;;;;;;;5.30;3.72;;;10.00;99.90;;;;;;5110383;28;20034;-76
2023/11/04 08:39:01;;;;;;;4.80;2.97;;;10.00;99.90;;;;;;5110381;28;20032;-76
2023/11/04 08:41:26;;;;;;;5.88;3.13;;;9.90;99.90;;;;;;5110185;28;20036;-76
2023/11/04 08:43:52;;;;;;;4.93;3.25;;;10.10;99.90;;;;;;5093415;28;20044;-76
2023/11/04 08:46:18;;;;;;;2.97;2.67;;;10.00;99.90;;;;;;5110239;28;20128;-76
2023/11/04 08:48:47;;;;;;;3.95;2.75;;;10.10;99.90;;;;;;5110208;28;20043;-76
2023/11/04 08:51:13;;;;;;;7.97;2.78;;;10.10;99.90;;;;;;5110096;28;20047;-77
2023/11/04 08:53:38;;;;;;;4.25;2.92;;;10.10;99.90;;;;;;5110169;28;20043;-77
2023/11/04 08:56:06;;;;;;;5.80;3.00;;;10.00;99.90;;;;;;5111961;28;20063;-77
2023/11/04 08:58:34;;;;;;;7.57;3.08;;;10.00;99.90;;;;;;5113982;28;20046;-76
2023/11/04 09:01:00;;;;;;;3.65;2.83;;;10.00;99.90;;;;;;5113207;28;20031;-76
2023/11/04 09:03:26;;;;;;;5.45;3.03;;;10.00;99.90;;;;;;5112968;28;20043;-74
2023/11/04 09:05:53;;;;;;;6.15;3.10;;;9.90;99.90;;;;;;5113573;28;20078;-74
2023/11/04 09:08:19;;;;;;;6.80;3.15;;;9.90;99.90;;;;;;5113920;28;20513;-74
2023/11/04 09:10:45;;;;;;;6.82;2.50;;;10.00;99.90;;;;;;5096636;28;20036;-75
2023/11/04 09:13:11;;;;;;;6.80;2.78;;;10.00;99.90;;;;;;5096513;28;20080;-74
2023/11/04 09:15:36;;;;;;;3.20;2.45;;;10.00;99.90;;;;;;5113710;28;20059;-74
2023/11/04 09:18:04;;;;;;;5.93;3.10;;;10.00;99.90;;;;;;5110919;28;20406;-76
2023/11/04 09:20:30;;;;;;;8.02;3.35;;;10.00;99.90;;;;;;5114379;28;20039;-77
2023/11/04 09:22:56;;;;;;;5.70;2.50;;;10.00;99.90;;;;;;5106133;28;20027;-76
2023/11/04 09:25:22;;;;;;;6.82;3.78;;;10.00;99.90;;;;;;5113204;28;20035;-77
2023/11/04 09:27:48;;;;;;;5.57;3.10;;;10.00;99.90;;;;;;5104830;28;20046;-76
2023/11/04 09:30:14;;;;;;;9.70;2.97;;;10.00;99.90;;;;;;5113261;28;20055;-76
2023/11/04 09:32:40;;;;;;;4.00;2.78;;;10.00;99.90;;;;;;5114329;28;20031;-77
2023/11/04 09:35:06;;;;;;;5.80;3.13;;;10.10;99.90;;;;;;5111940;28;20127;-76
2023/11/04 09:37:32;;;;;;;6.93;3.33;;;10.10;99.90;;;;;;5105875;28;20459;-76
2023/11/04 09:39:59;;;;;;;4.63;2.80;;;10.20;99.90;;;;;;5113009;28;20074;-76
2023/11/04 09:42:27;;;;;;;4.25;2.75;;;10.20;99.90;;;;;;5112926;28;20085;-76
2023/11/04 09:44:56;;;;;;;6.45;2.50;;;10.20;99.90;;;;;;5112161;28;20582;-76
2023/11/04 09:47:23;;;;;;;4.25;2.17;;;10.20;99.90;;;;;;5113193;28;20461;-76
2023/11/04 09:49:49;;;;;;;5.57;2.15;;;10.20;99.90;;;;;;5110086;28;20092;-76
2023/11/04 09:52:16;;;;;;;4.75;1.98;;;10.20;99.90;;;;;;5120500;27;20480;-76
2023/11/04 09:54:47;;;;;;;4.85;2.63;;;10.20;99.90;;;;;;5099152;28;20503;-76
2023/11/04 09:57:14;;;;;;;5.72;2.17;;;10.30;99.90;;;;;;5112457;28;20118;-76
2023/11/04 09:59:41;;;;;;;4.40;2.22;;;10.30;99.90;;;;;;5112317;28;20479;-77
2023/11/04 10:02:10;;;;;;;3.17;1.63;;;10.40;99.90;;;;;;5113246;28;20043;-76
2023/11/04 10:04:36;;;;;;;6.57;2.45;;;10.50;99.90;;;;;;5112322;28;20399;-77
2023/11/04 10:07:03;;;;;;;2.63;1.70;;;10.60;99.90;;;;;;5112655;28;20452;-76
2023/11/04 10:09:29;;;;;;;4.53;1.85;;;10.70;99.90;;;;;;5108306;28;20415;-75
2023/11/04 10:11:54;;;;;;;3.17;1.65;;;10.80;99.90;;;;;;5087357;28;20055;-76
2023/11/04 10:14:20;;;;;;;4.50;1.40;;;10.80;99.90;;;;;;5091933;28;20040;-76
2023/11/04 10:16:47;;;;;;;5.72;1.90;;;10.80;99.90;;;;;;5075217;28;20039;-76
2023/11/04 10:19:13;;;;;;;4.95;1.48;;;10.90;99.90;;;;;;5091959;28;20495;-75
2023/11/04 10:21:40;;;;;;;6.32;1.73;;;10.90;99.90;;;;;;5091715;28;20036;-76
2023/11/04 10:24:07;;;;;;;7.53;2.35;;;10.90;99.90;;;;;;5091785;28;20046;-76
2023/11/04 10:26:33;;;;;;;3.67;1.60;;;10.90;99.90;;;;;;5101951;28;20043;-76
2023/11/04 10:28:59;;;;;;;8.07;2.47;;;10.90;99.90;;;;;;5108629;28;20055;-76
2023/11/04 10:31:25;;;;;;;7.13;2.60;;;10.80;99.90;;;;;;5112193;28;20047;-76
2023/11/04 10:33:55;;;;;;;6.38;2.45;;;10.90;99.90;;;;;;5112088;28;20043;-77
2023/11/04 10:36:21;;;;;;;5.68;1.83;;;10.80;99.90;;;;;;5095305;28;20031;-76
2023/11/04 10:38:56;;;;;;;6.18;1.77;;;10.90;99.90;;;;;;5112210;28;20036;-76
2023/11/04 10:41:29;;;;;;;7.10;2.40;;;10.90;99.90;;;;;;5111660;28;20058;-77
2023/11/04 10:44:03;;;;;;;4.65;2.53;;;11.00;99.90;;;;;;5111604;28;20046;-77
2023/11/04 10:46:50;;;;;;;7.28;2.25;;;10.90;99.90;;;;;;5112183;28;20562;-76
2023/11/04 10:49:43;;;;;;;4.45;1.92;;;10.90;99.90;;;;;;5111852;28;20051;-76
2023/11/04 10:52:12;;;;;;;4.25;1.10;;;10.80;99.90;;;;;;5111785;28;20051;-77
2023/11/04 10:55:00;;;;;;;3.17;1.35;;;10.80;99.90;;;;;;5094625;28;20070;-77
2023/11/04 10:57:39;;;;;;;2.95;1.15;;;10.80;99.90;;;;;;5111675;28;20039;-76
2023/11/04 11:00:13;;;;;;;4.85;1.55;;;10.80;99.90;;;;;;5111471;28;20036;-76
2023/11/04 11:02:43;;;;;;;2.90;1.30;;;10.80;99.90;;;;;;5111220;28;20058;-76
2023/11/04 11:05:12;;;;;;;3.72;1.20;;;10.80;99.90;;;;;;5110968;28;20036;-76
2023/11/04 11:07:45;;;;;;;3.30;1.20;;;10.70;99.90;;;;;;5094318;28;20075;-76
2023/11/04 11:10:15;;;;;;;2.83;1.05;;;10.80;99.90;;;;;;5111285;28;20036;-77
2023/11/04 11:13:02;;;;;;;2.22;1.10;;;10.70;99.90;;;;;;5111192;28;20088;-76
2023/11/04 11:15:29;;;;;;;4.32;1.17;;;10.70;99.90;;;;;;5111092;28;20097;-76
2023/11/04 11:17:56;;;;;;;3.38;1.00;;;10.70;99.90;;;;;;5110785;28;20082;-76
2023/11/04 11:20:35;;;;;;;1.65;0.80;;;10.80;99.90;;;;;;5111126;28;20035;-76
2023/11/04 11:23:08;;;;;;;2.47;1.30;;;10.80;99.90;;;;;;5110954;28;20075;-76
2023/11/04 11:25:38;;;;;;;2.15;0.80;;;10.90;99.90;;;;;;5110073;28;20122;-76
2023/11/04 11:28:19;;;;;;;4.18;1.20;;;10.90;99.90;;;;;;5094003;28;20051;-76
2023/11/04 11:30:46;;;;;;;3.17;1.20;;;11.00;99.90;;;;;;5110919;28;20081;-76
2023/11/04 11:33:12;;;;;;;2.38;1.35;;;11.00;99.90;;;;;;5111469;28;20036;-76
2023/11/04 11:35:59;;;;;;;1.70;0.93;;;11.00;99.90;;;;;;5112019;28;20497;-76
2023/11/04 11:38:30;;;;;;;2.40;1.20;;;11.10;99.90;;;;;;5094005;28;20088;-76
2023/11/04 11:41:03;;;;;;;3.08;1.20;;;11.10;99.90;;;;;;5111243;28;20071;-76
2023/11/04 11:43:29;;;;;;;1.63;1.20;;;11.10;99.90;;;;;;5110892;28;20549;-76
2023/11/04 11:45:55;;;;;;;2.40;1.48;;;11.20;99.90;;;;;;5110592;28;20035;-76
2023/11/04 11:48:23;;;;;;;3.58;1.70;;;11.20;99.90;;;;;;5111185;28;20148;-76
2023/11/04 11:50:49;;;;;;;5.72;2.53;;;11.20;99.90;;;;;;5110604;28;20069;-76
2023/11/04 11:53:15;;;;;;;4.70;2.40;;;11.20;99.90;;;;;;5110580;28;20065;-76
2023/11/04 11:55:42;;;;;;;3.88;1.90;;;11.20;99.90;;;;;;5111988;28;20080;-76
2023/11/04 11:58:10;;;;;;;4.97;2.28;;;11.20;99.90;;;;;;5110679;28;20038;-76
2023/11/04 12:00:36;;;;;;;3.05;1.95;;;11.20;99.90;;;;;;5110816;28;20047;-77
2023/11/04 12:03:05;;;;;;;3.33;1.92;;;11.10;99.90;;;;;;5111345;28;20217;-76
2023/11/04 12:05:34;;;;;;;4.15;2.60;;;11.10;99.90;;;;;;5109929;28;20499;-76
2023/11/04 12:08:00;;;;;;;3.75;2.08;;;11.10;99.90;;;;;;5110435;28;20072;-77
2023/11/04 12:10:26;;;;;;;3.72;1.52;;;11.00;99.90;;;;;;5110462;28;20074;-77
2023/11/04 12:12:51;;;;;;;2.20;1.75;;;11.00;99.90;;;;;;5110713;28;20035;-76
2023/11/04 12:15:17;;;;;;;4.65;1.95;;;11.00;99.90;;;;;;5110258;28;20043;-78
2023/11/04 12:17:54;;;;;;;1.50;1.40;;;11.00;99.90;;;;;;5093466;28;20521;-77
2023/11/04 12:20:26;;;;;;;1.73;1.50;;;11.10;99.90;;;;;;5082666;28;20051;-77
2023/11/04 12:22:53;;;;;;;5.63;1.58;;;11.00;99.90;;;;;;5109747;28;20036;-76
2023/11/04 12:25:19;;;;;;;4.50;1.58;;;11.10;99.90;;;;;;5110091;28;20515;-77
2023/11/04 12:27:48;;;;;;;3.05;1.40;;;11.10;99.90;;;;;;5111081;28;20040;-76
2023/11/04 12:30:18;;;;;;;2.03;1.20;;;11.00;99.90;;;;;;5112314;28;20088;-77
2023/11/04 12:32:47;;;;;;;2.08;1.00;;;11.00;99.90;;;;;;5114425;28;20130;-77
2023/11/04 12:35:12;;;;;;;2.65;1.00;;;10.90;99.90;;;;;;5114195;28;20043;-77
2023/11/04 12:37:38;;;;;;;1.10;1.00;;;11.00;99.90;;;;;;5115592;28;20050;-76
2023/11/04 12:40:04;;;;;;;2.88;0.90;;;11.00;99.90;;;;;;5114074;28;20097;-76
2023/11/04 12:42:29;;;;;;;1.80;0.80;;;11.00;99.90;;;;;;5115534;28;20047;-76
2023/11/04 12:44:57;;;;;;;2.83;1.00;;;11.00;99.90;;;;;;5113853;28;20039;-77
2023/11/04 12:47:26;;;;;;;1.70;1.02;;;11.00;99.90;;;;;;5114047;28;20054;-76
2023/11/04 12:49:53;;;;;;;3.30;2.45;;;10.90;99.90;;;;;;5113993;28;20046;-77